Jonesville, Kentucky
Current Conditions -  °F | °C
As of 6:52 AM on Wednesday 28 Jan 2015 (Local Time) from KCVG Reporting Station
Haze Haze  
Wind Chill: 14°   Ceiling: Unl
Heat Index: 14°   Visibility: 5mi
Dew Point: 10°   Wind: 0mph
Humidity: 84%   Direction: NA
Pressure: 30.33"   Gusts: NA
Location:  38.64°N, 84.78°W
Report Text: KCVG 281152Z 00000KT 5SM BR CLR M10/M12 A3033 RMK AO2 SLP284 T11001122 11067 21100 53017
Loading
Personal Weather Stations






























Interactive Weather Map New forecast layout! Learn more

10-Day Weather Forecast

Advertisements
Track Severe Weather on mobile